sensor_id;sensor_type;location;lat;lon;timestamp;pressure;altitude;pressure_sealevel;temperature;humidity
14689;BME280;7432;48.728;9.154;2022-12-11T00:01:38;95893.63;;;-2.63;92.84
14689;BME280;7432;48.728;9.154;2022-12-11T00:04:06;95892.19;;;-2.67;93.19
14689;BME280;7432;48.728;9.154;2022-12-11T00:06:33;95877.88;;;-2.79;93.28
14689;BME280;7432;48.728;9.154;2022-12-11T00:08:59;95888.47;;;-2.74;93.10
14689;BME280;7432;48.728;9.154;2022-12-11T00:11:26;95879.91;;;-2.71;93.30
14689;BME280;7432;48.728;9.154;2022-12-11T00:13:52;95889.69;;;-2.67;92.32
14689;BME280;7432;48.728;9.154;2022-12-11T00:16:19;95897.06;;;-2.64;92.88
14689;BME280;7432;48.728;9.154;2022-12-11T00:18:45;95889.78;;;-2.68;91.92
14689;BME280;7432;48.728;9.154;2022-12-11T00:21:13;95892.50;;;-2.71;92.33
14689;BME280;7432;48.728;9.154;2022-12-11T00:23:40;95878.13;;;-2.83;92.18
14689;BME280;7432;48.728;9.154;2022-12-11T00:26:08;95853.44;;;-3.05;92.41
14689;BME280;7432;48.728;9.154;2022-12-11T00:28:35;95887.59;;;-2.87;92.66
14689;BME280;7432;48.728;9.154;2022-12-11T00:31:03;95893.34;;;-2.85;92.42
14689;BME280;7432;48.728;9.154;2022-12-11T00:33:29;95889.81;;;-2.82;92.58
14689;BME280;7432;48.728;9.154;2022-12-11T00:35:56;95874.56;;;-2.93;92.55
14689;BME280;7432;48.728;9.154;2022-12-11T00:38:24;95884.78;;;-2.82;92.68
14689;BME280;7432;48.728;9.154;2022-12-11T00:40:50;95876.59;;;-2.86;92.56
14689;BME280;7432;48.728;9.154;2022-12-11T00:43:16;95876.03;;;-2.77;92.20
14689;BME280;7432;48.728;9.154;2022-12-11T00:45:44;95878.75;;;-2.80;92.17
14689;BME280;7432;48.728;9.154;2022-12-11T00:48:11;95883.81;;;-2.67;92.72
14689;BME280;7432;48.728;9.154;2022-12-11T00:50:38;95877.94;;;-2.54;92.27
14689;BME280;7432;48.728;9.154;2022-12-11T00:53:06;95880.00;;;-2.33;91.89
14689;BME280;7432;48.728;9.154;2022-12-11T00:55:37;95884.28;;;-2.21;91.64
14689;BME280;7432;48.728;9.154;2022-12-11T00:58:05;95890.03;;;-2.07;91.35
14689;BME280;7432;48.728;9.154;2022-12-11T01:00:32;95885.31;;;-1.99;90.70
14689;BME280;7432;48.728;9.154;2022-12-11T01:02:58;95889.84;;;-1.91;90.91
14689;BME280;7432;48.728;9.154;2022-12-11T01:05:25;95891.28;;;-1.87;90.81
14689;BME280;7432;48.728;9.154;2022-12-11T01:07:51;95892.59;;;-1.82;90.71
14689;BME280;7432;48.728;9.154;2022-12-11T01:10:17;95904.44;;;-1.69;90.34
14689;BME280;7432;48.728;9.154;2022-12-11T01:12:52;95912.00;;;-1.69;90.65
14689;BME280;7432;48.728;9.154;2022-12-11T01:15:19;95907.34;;;-1.63;90.57
14689;BME280;7432;48.728;9.154;2022-12-11T01:17:47;95898.47;;;-1.68;90.42
14689;BME280;7432;48.728;9.154;2022-12-11T01:20:14;95920.56;;;-1.59;90.51
14689;BME280;7432;48.728;9.154;2022-12-11T01:22:41;95919.97;;;-1.63;91.03
14689;BME280;7432;48.728;9.154;2022-12-11T01:25:08;95922.59;;;-1.64;90.93
14689;BME280;7432;48.728;9.154;2022-12-11T01:27:35;95932.50;;;-1.61;90.61
14689;BME280;7432;48.728;9.154;2022-12-11T01:30:04;95930.34;;;-1.55;90.97
14689;BME280;7432;48.728;9.154;2022-12-11T01:32:32;95928.25;;;-1.48;90.94
14689;BME280;7432;48.728;9.154;2022-12-11T01:34:59;95910.47;;;-1.59;90.86
14689;BME280;7432;48.728;9.154;2022-12-11T01:37:25;95929.56;;;-1.43;90.48
14689;BME280;7432;48.728;9.154;2022-12-11T01:39:51;95931.06;;;-1.40;90.40
14689;BME280;7432;48.728;9.154;2022-12-11T01:42:19;95933.28;;;-1.36;90.51
14689;BME280;7432;48.728;9.154;2022-12-11T01:47:58;95935.59;;;-1.33;90.21
14689;BME280;7432;48.728;9.154;2022-12-11T01:50:25;95934.22;;;-1.37;90.27
14689;BME280;7432;48.728;9.154;2022-12-11T01:52:52;95940.16;;;-1.38;90.34
14689;BME280;7432;48.728;9.154;2022-12-11T01:55:20;95938.44;;;-1.37;90.14
14689;BME280;7432;48.728;9.154;2022-12-11T01:57:48;95935.91;;;-1.50;89.80
14689;BME280;7432;48.728;9.154;2022-12-11T02:00:16;95937.03;;;-1.41;90.01
14689;BME280;7432;48.728;9.154;2022-12-11T02:02:43;95931.78;;;-1.38;90.22
14689;BME280;7432;48.728;9.154;2022-12-11T02:05:11;95942.88;;;-1.41;90.22
14689;BME280;7432;48.728;9.154;2022-12-11T02:07:40;95941.78;;;-1.37;90.40
14689;BME280;7432;48.728;9.154;2022-12-11T02:10:09;95943.38;;;-1.36;90.01
14689;BME280;7432;48.728;9.154;2022-12-11T02:12:42;95946.69;;;-1.23;89.10
14689;BME280;7432;48.728;9.154;2022-12-11T02:15:16;95953.50;;;-1.23;89.04
14689;BME280;7432;48.728;9.154;2022-12-11T02:17:47;95948.84;;;-1.29;89.68
14689;BME280;7432;48.728;9.154;2022-12-11T02:20:21;95953.25;;;-1.20;89.20
14689;BME280;7432;48.728;9.154;2022-12-11T02:23:00;95946.63;;;-1.21;89.40
14689;BME280;7432;48.728;9.154;2022-12-11T02:25:32;95943.28;;;-1.22;89.44
14689;BME280;7432;48.728;9.154;2022-12-11T02:28:14;95940.63;;;-1.20;89.48
14689;BME280;7432;48.728;9.154;2022-12-11T02:30:45;95943.78;;;-1.16;89.46
14689;BME280;7432;48.728;9.154;2022-12-11T02:33:15;95938.41;;;-1.12;89.41
14689;BME280;7432;48.728;9.154;2022-12-11T02:35:44;95927.94;;;-1.18;89.39
14689;BME280;7432;48.728;9.154;2022-12-11T02:38:14;95934.28;;;-1.13;89.53
14689;BME280;7432;48.728;9.154;2022-12-11T02:40:42;95936.31;;;-1.18;89.68
14689;BME280;7432;48.728;9.154;2022-12-11T02:43:14;95930.34;;;-1.17;89.84
14689;BME280;7432;48.728;9.154;2022-12-11T02:45:43;95935.38;;;-1.17;89.67
14689;BME280;7432;48.728;9.154;2022-12-11T02:48:12;95933.78;;;-1.18;89.81
14689;BME280;7432;48.728;9.154;2022-12-11T02:50:42;95929.59;;;-1.06;89.82
14689;BME280;7432;48.728;9.154;2022-12-11T02:53:11;95937.78;;;-1.03;88.75
14689;BME280;7432;48.728;9.154;2022-12-11T02:55:39;95931.63;;;-0.99;88.47
14689;BME280;7432;48.728;9.154;2022-12-11T02:58:13;95930.22;;;-1.03;88.82
14689;BME280;7432;48.728;9.154;2022-12-11T03:00:42;95927.09;;;-1.06;89.18
14689;BME280;7432;48.728;9.154;2022-12-11T03:03:09;95923.06;;;-1.09;89.34
14689;BME280;7432;48.728;9.154;2022-12-11T03:05:36;95925.16;;;-1.03;88.93
14689;BME280;7432;48.728;9.154;2022-12-11T03:08:02;95922.28;;;-1.09;89.19
14689;BME280;7432;48.728;9.154;2022-12-11T03:10:29;95926.59;;;-1.11;89.25
14689;BME280;7432;48.728;9.154;2022-12-11T03:12:57;95921.25;;;-1.07;89.06
14689;BME280;7432;48.728;9.154;2022-12-11T03:15:32;95920.94;;;-1.02;88.68
14689;BME280;7432;48.728;9.154;2022-12-11T03:18:05;95919.00;;;-0.99;88.03
14689;BME280;7432;48.728;9.154;2022-12-11T03:20:37;95928.91;;;-0.96;88.09
14689;BME280;7432;48.728;9.154;2022-12-11T03:23:14;95924.56;;;-0.94;87.95
14689;BME280;7432;48.728;9.154;2022-12-11T03:25:47;95932.53;;;-1.00;88.48
14689;BME280;7432;48.728;9.154;2022-12-11T03:28:18;95932.66;;;-1.01;87.77
14689;BME280;7432;48.728;9.154;2022-12-11T03:30:50;95931.84;;;-1.02;88.06
14689;BME280;7432;48.728;9.154;2022-12-11T03:33:22;95925.28;;;-1.04;88.13
14689;BME280;7432;48.728;9.154;2022-12-11T03:35:52;95928.91;;;-0.96;87.91
14689;BME280;7432;48.728;9.154;2022-12-11T03:38:22;95929.91;;;-0.98;88.29
14689;BME280;7432;48.728;9.154;2022-12-11T03:40:54;95938.00;;;-0.93;87.72
14689;BME280;7432;48.728;9.154;2022-12-11T03:43:22;95937.19;;;-0.94;87.69
14689;BME280;7432;48.728;9.154;2022-12-11T03:45:52;95931.19;;;-0.93;87.43
14689;BME280;7432;48.728;9.154;2022-12-11T03:48:20;95937.19;;;-0.94;87.83
14689;BME280;7432;48.728;9.154;2022-12-11T03:50:47;95938.41;;;-0.99;88.21
14689;BME280;7432;48.728;9.154;2022-12-11T03:53:15;95928.72;;;-1.05;88.09
14689;BME280;7432;48.728;9.154;2022-12-11T03:55:42;95930.22;;;-1.03;88.35
14689;BME280;7432;48.728;9.154;2022-12-11T03:58:08;95914.69;;;-1.09;88.31
14689;BME280;7432;48.728;9.154;2022-12-11T04:00:35;95927.81;;;-1.04;88.54
14689;BME280;7432;48.728;9.154;2022-12-11T04:03:03;95927.81;;;-1.04;88.09
14689;BME280;7432;48.728;9.154;2022-12-11T04:05:39;95924.47;;;-1.05;88.49
14689;BME280;7432;48.728;9.154;2022-12-11T04:08:05;95911.06;;;-1.18;88.84
14689;BME280;7432;48.728;9.154;2022-12-11T04:10:31;95920.34;;;-1.18;88.74
14689;BME280;7432;48.728;9.154;2022-12-11T04:12:58;95926.63;;;-1.24;88.07
14689;BME280;7432;48.728;9.154;2022-12-11T04:15:24;95920.88;;;-1.26;88.85
14689;BME280;7432;48.728;9.154;2022-12-11T04:17:50;95911.66;;;-1.27;88.43
14689;BME280;7432;48.728;9.154;2022-12-11T04:20:35;95917.44;;;-1.38;88.71
14689;BME280;7432;48.728;9.154;2022-12-11T04:23:19;95906.72;;;-1.41;88.95
14689;BME280;7432;48.728;9.154;2022-12-11T04:26:04;95913.69;;;-1.45;88.89
14689;BME280;7432;48.728;9.154;2022-12-11T04:28:30;95904.41;;;-1.44;88.85
14689;BME280;7432;48.728;9.154;2022-12-11T04:30:57;95913.19;;;-1.50;88.85
14689;BME280;7432;48.728;9.154;2022-12-11T04:33:23;95906.53;;;-1.51;88.99
14689;BME280;7432;48.728;9.154;2022-12-11T04:35:51;95905.81;;;-1.53;89.73
14689;BME280;7432;48.728;9.154;2022-12-11T04:38:17;95915.22;;;-1.55;89.29
14689;BME280;7432;48.728;9.154;2022-12-11T04:40:44;95905.22;;;-1.56;89.20
14689;BME280;7432;48.728;9.154;2022-12-11T04:43:10;95899.47;;;-1.58;89.53
14689;BME280;7432;48.728;9.154;2022-12-11T04:45:37;95907.97;;;-1.59;89.38
14689;BME280;7432;48.728;9.154;2022-12-11T04:48:03;95898.25;;;-1.53;88.73
14689;BME280;7432;48.728;9.154;2022-12-11T04:50:30;95890.09;;;-1.56;88.87
14689;BME280;7432;48.728;9.154;2022-12-11T04:52:57;95892.63;;;-1.56;88.67
14689;BME280;7432;48.728;9.154;2022-12-11T04:55:24;95892.50;;;-1.67;89.18
14689;BME280;7432;48.728;9.154;2022-12-11T04:57:50;95896.34;;;-1.62;89.46
14689;BME280;7432;48.728;9.154;2022-12-11T05:00:17;95898.69;;;-1.59;88.51
14689;BME280;7432;48.728;9.154;2022-12-11T05:02:43;95898.56;;;-1.57;88.86
14689;BME280;7432;48.728;9.154;2022-12-11T05:05:10;95885.13;;;-1.58;88.25
14689;BME280;7432;48.728;9.154;2022-12-11T05:07:37;95893.09;;;-1.51;88.25
14689;BME280;7432;48.728;9.154;2022-12-11T05:10:06;95889.06;;;-1.54;88.30
14689;BME280;7432;48.728;9.154;2022-12-11T05:12:33;95887.16;;;-1.50;88.23
14689;BME280;7432;48.728;9.154;2022-12-11T05:14:59;95878.97;;;-1.41;87.56
14689;BME280;7432;48.728;9.154;2022-12-11T05:17:26;95883.50;;;-1.46;87.37
14689;BME280;7432;48.728;9.154;2022-12-11T05:19:52;95892.81;;;-1.59;87.74
14689;BME280;7432;48.728;9.154;2022-12-11T05:22:19;95886.75;;;-1.57;87.90
14689;BME280;7432;48.728;9.154;2022-12-11T05:24:45;95886.44;;;-1.52;88.11
14689;BME280;7432;48.728;9.154;2022-12-11T05:27:13;95882.41;;;-1.55;87.80
14689;BME280;7432;48.728;9.154;2022-12-11T05:29:39;95885.72;;;-1.42;87.69
14689;BME280;7432;48.728;9.154;2022-12-11T05:32:06;95891.69;;;-1.43;87.75
14689;BME280;7432;48.728;9.154;2022-12-11T05:34:32;95875.63;;;-1.42;87.57
14689;BME280;7432;48.728;9.154;2022-12-11T05:36:59;95874.59;;;-1.39;87.23
14689;BME280;7432;48.728;9.154;2022-12-11T05:39:25;95872.41;;;-1.44;87.09
14689;BME280;7432;48.728;9.154;2022-12-11T05:41:51;95868.06;;;-1.54;87.26
14689;BME280;7432;48.728;9.154;2022-12-11T05:44:19;95859.91;;;-1.70;87.51
14689;BME280;7432;48.728;9.154;2022-12-11T05:46:46;95856.88;;;-1.75;87.67
14689;BME280;7432;48.728;9.154;2022-12-11T05:49:14;95850.63;;;-1.95;88.24
14689;BME280;7432;48.728;9.154;2022-12-11T05:51:40;95844.75;;;-2.08;88.49
14689;BME280;7432;48.728;9.154;2022-12-11T05:54:08;95834.25;;;-2.15;88.69
14689;BME280;7432;48.728;9.154;2022-12-11T05:56:35;95824.38;;;-2.30;88.98
14689;BME280;7432;48.728;9.154;2022-12-11T05:59:03;95845.16;;;-2.27;89.69
14689;BME280;7432;48.728;9.154;2022-12-11T06:01:33;95849.88;;;-2.35;90.19
14689;BME280;7432;48.728;9.154;2022-12-11T06:04:02;95866.22;;;-2.15;88.54
14689;BME280;7432;48.728;9.154;2022-12-11T06:06:29;95875.28;;;-2.25;88.54
14689;BME280;7432;48.728;9.154;2022-12-11T06:08:57;95879.38;;;-2.37;88.92
14689;BME280;7432;48.728;9.154;2022-12-11T06:11:25;95866.34;;;-2.56;90.05
14689;BME280;7432;48.728;9.154;2022-12-11T06:13:52;95875.81;;;-2.60;90.62
14689;BME280;7432;48.728;9.154;2022-12-11T06:16:19;95869.84;;;-2.59;91.13
14689;BME280;7432;48.728;9.154;2022-12-11T06:18:47;95869.84;;;-2.59;90.87
14689;BME280;7432;48.728;9.154;2022-12-11T06:21:16;95867.94;;;-2.68;90.84
14689;BME280;7432;48.728;9.154;2022-12-11T06:23:45;95869.00;;;-2.72;91.53
14689;BME280;7432;48.728;9.154;2022-12-11T06:26:13;95859.94;;;-2.74;90.88
14689;BME280;7432;48.728;9.154;2022-12-11T06:28:40;95866.78;;;-2.76;91.20
14689;BME280;7432;48.728;9.154;2022-12-11T06:31:06;95852.56;;;-2.77;90.67
14689;BME280;7432;48.728;9.154;2022-12-11T06:33:34;95862.25;;;-2.71;91.46
14689;BME280;7432;48.728;9.154;2022-12-11T06:36:02;95861.44;;;-2.72;91.33
14689;BME280;7432;48.728;9.154;2022-12-11T06:38:29;95857.41;;;-2.74;91.77
14689;BME280;7432;48.728;9.154;2022-12-11T06:40:56;95856.72;;;-2.76;92.03
14689;BME280;7432;48.728;9.154;2022-12-11T06:43:23;95858.69;;;-2.81;92.39
14689;BME280;7432;48.728;9.154;2022-12-11T06:45:50;95846.81;;;-2.79;92.71
14689;BME280;7432;48.728;9.154;2022-12-11T06:48:17;95855.47;;;-2.83;92.34
14689;BME280;7432;48.728;9.154;2022-12-11T06:50:43;95852.53;;;-2.90;92.61
14689;BME280;7432;48.728;9.154;2022-12-11T06:53:12;95855.38;;;-2.82;92.34
14689;BME280;7432;48.728;9.154;2022-12-11T06:55:39;95864.16;;;-2.75;92.19
14689;BME280;7432;48.728;9.154;2022-12-11T06:58:06;95867.69;;;-2.77;91.71
14689;BME280;7432;48.728;9.154;2022-12-11T07:00:34;95865.88;;;-2.75;91.45
14689;BME280;7432;48.728;9.154;2022-12-11T07:03:00;95875.00;;;-2.60;91.11
14689;BME280;7432;48.728;9.154;2022-12-11T07:05:27;95880.75;;;-2.58;91.55
14689;BME280;7432;48.728;9.154;2022-12-11T07:07:53;95879.44;;;-2.51;91.26
14689;BME280;7432;48.728;9.154;2022-12-11T07:10:22;95879.66;;;-2.54;90.71
14689;BME280;7432;48.728;9.154;2022-12-11T07:12:49;95877.34;;;-2.57;91.09
14689;BME280;7432;48.728;9.154;2022-12-11T07:15:17;95883.69;;;-2.52;90.61
14689;BME280;7432;48.728;9.154;2022-12-11T07:17:43;95881.06;;;-2.50;90.82
14689;BME280;7432;48.728;9.154;2022-12-11T07:20:10;95873.81;;;-2.55;90.35
14689;BME280;7432;48.728;9.154;2022-12-11T07:22:36;95877.03;;;-2.53;90.34
14689;BME280;7432;48.728;9.154;2022-12-11T07:25:03;95869.66;;;-2.56;90.19
14689;BME280;7432;48.728;9.154;2022-12-11T07:27:31;95868.84;;;-2.56;90.53
14689;BME280;7432;48.728;9.154;2022-12-11T07:29:57;95872.50;;;-2.48;90.37
14689;BME280;7432;48.728;9.154;2022-12-11T07:32:24;95873.41;;;-2.49;90.26
14689;BME280;7432;48.728;9.154;2022-12-11T07:34:50;95880.41;;;-2.40;90.80
14689;BME280;7432;48.728;9.154;2022-12-11T07:37:16;95883.94;;;-2.29;90.20
14689;BME280;7432;48.728;9.154;2022-12-11T07:39:43;95883.47;;;-2.22;89.83
14689;BME280;7432;48.728;9.154;2022-12-11T07:42:09;95892.28;;;-2.02;89.53
14689;BME280;7432;48.728;9.154;2022-12-11T07:44:37;95890.06;;;-1.94;88.83
14689;BME280;7432;48.728;9.154;2022-12-11T07:47:03;95889.06;;;-1.92;89.15
14689;BME280;7432;48.728;9.154;2022-12-11T07:49:30;95877.97;;;-1.89;88.33
14689;BME280;7432;48.728;9.154;2022-12-11T07:51:56;95880.00;;;-1.82;87.90
14689;BME280;7432;48.728;9.154;2022-12-11T07:54:22;95888.94;;;-1.77;87.97
14689;BME280;7432;48.728;9.154;2022-12-11T07:56:49;95881.59;;;-1.68;87.61
14689;BME280;7432;48.728;9.154;2022-12-11T07:59:15;95875.22;;;-1.36;87.03
14689;BME280;7432;48.728;9.154;2022-12-11T08:01:43;95883.00;;;-0.90;85.06
14689;BME280;7432;48.728;9.154;2022-12-11T08:04:10;95875.50;;;-0.55;83.87
14689;BME280;7432;48.728;9.154;2022-12-11T08:06:40;95875.59;;;0.02;81.70
14689;BME280;7432;48.728;9.154;2022-12-11T08:09:09;95881.16;;;0.18;79.22
14689;BME280;7432;48.728;9.154;2022-12-11T08:11:36;95875.66;;;0.35;79.18
14689;BME280;7432;48.728;9.154;2022-12-11T08:14:03;95885.69;;;0.48;78.14
14689;BME280;7432;48.728;9.154;2022-12-11T08:16:30;95883.50;;;0.54;77.00
14689;BME280;7432;48.728;9.154;2022-12-11T08:18:58;95876.47;;;0.69;76.48
14689;BME280;7432;48.728;9.154;2022-12-11T08:21:26;95877.03;;;0.95;75.35
14689;BME280;7432;48.728;9.154;2022-12-11T08:23:53;95881.88;;;1.09;74.85
14689;BME280;7432;48.728;9.154;2022-12-11T08:26:22;95869.84;;;1.22;74.52
14689;BME280;7432;48.728;9.154;2022-12-11T08:28:49;95873.53;;;1.18;74.84
14689;BME280;7432;48.728;9.154;2022-12-11T08:31:17;95869.41;;;1.17;74.59
14689;BME280;7432;48.728;9.154;2022-12-11T08:33:44;95880.03;;;1.00;75.21
14689;BME280;7432;48.728;9.154;2022-12-11T08:36:15;95880.94;;;0.99;74.23
14689;BME280;7432;48.728;9.154;2022-12-11T08:38:42;95882.78;;;0.86;74.83
14689;BME280;7432;48.728;9.154;2022-12-11T08:41:09;95890.63;;;0.83;74.81
14689;BME280;7432;48.728;9.154;2022-12-11T08:43:35;95887.19;;;0.84;75.16
14689;BME280;7432;48.728;9.154;2022-12-11T08:46:02;95891.78;;;0.56;74.93
14689;BME280;7432;48.728;9.154;2022-12-11T08:48:28;95888.78;;;0.51;76.00
14689;BME280;7432;48.728;9.154;2022-12-11T08:50:58;95889.84;;;0.49;77.00
14689;BME280;7432;48.728;9.154;2022-12-11T08:53:26;95885.69;;;0.48;77.01
14689;BME280;7432;48.728;9.154;2022-12-11T08:55:52;95883.28;;;0.46;76.79
14689;BME280;7432;48.728;9.154;2022-12-11T08:58:18;95876.00;;;0.42;77.50
14689;BME280;7432;48.728;9.154;2022-12-11T09:00:45;95878.19;;;0.35;76.97
14689;BME280;7432;48.728;9.154;2022-12-11T09:03:11;95873.91;;;0.36;77.34
14689;BME280;7432;48.728;9.154;2022-12-11T09:05:38;95883.69;;;0.29;76.55
14689;BME280;7432;48.728;9.154;2022-12-11T09:08:04;95878.72;;;0.28;76.39
14689;BME280;7432;48.728;9.154;2022-12-11T09:10:32;95884.00;;;0.25;77.05
14689;BME280;7432;48.728;9.154;2022-12-11T09:12:59;95889.63;;;0.06;77.17
14689;BME280;7432;48.728;9.154;2022-12-11T09:15:25;95881.50;;;0.14;78.03
14689;BME280;7432;48.728;9.154;2022-12-11T09:17:51;95875.50;;;0.26;78.36
14689;BME280;7432;48.728;9.154;2022-12-11T09:20:18;95880.94;;;0.32;77.61
14689;BME280;7432;48.728;9.154;2022-12-11T09:22:44;95878.88;;;0.37;78.78
14689;BME280;7432;48.728;9.154;2022-12-11T09:25:11;95878.31;;;0.45;77.24
14689;BME280;7432;48.728;9.154;2022-12-11T09:27:39;95883.72;;;0.51;77.14
14689;BME280;7432;48.728;9.154;2022-12-11T09:30:07;95877.63;;;0.65;77.13
14689;BME280;7432;48.728;9.154;2022-12-11T09:32:33;95871.97;;;0.84;76.76
14689;BME280;7432;48.728;9.154;2022-12-11T09:35:00;95859.75;;;1.00;75.33
14689;BME280;7432;48.728;9.154;2022-12-11T09:37:26;95859.38;;;1.15;74.55
14689;BME280;7432;48.728;9.154;2022-12-11T09:39:52;95866.50;;;1.22;74.13
14689;BME280;7432;48.728;9.154;2022-12-11T09:42:24;95868.44;;;1.29;73.10
14689;BME280;7432;48.728;9.154;2022-12-11T09:44:55;95874.75;;;1.46;73.29
14689;BME280;7432;48.728;9.154;2022-12-11T09:47:26;95877.97;;;1.37;72.38
14689;BME280;7432;48.728;9.154;2022-12-11T09:50:02;95867.50;;;1.41;72.29
14689;BME280;7432;48.728;9.154;2022-12-11T09:52:34;95871.81;;;1.61;72.85
14689;BME280;7432;48.728;9.154;2022-12-11T09:55:11;95865.53;;;1.76;72.61
14689;BME280;7432;48.728;9.154;2022-12-11T09:57:46;95860.78;;;1.83;71.62
14689;BME280;7432;48.728;9.154;2022-12-11T10:00:19;95860.66;;;1.85;71.40
14689;BME280;7432;48.728;9.154;2022-12-11T10:03:12;95868.63;;;1.80;71.78
14689;BME280;7432;48.728;9.154;2022-12-11T10:05:49;95864.03;;;1.42;70.71
14689;BME280;7432;48.728;9.154;2022-12-11T10:08:26;95856.53;;;1.41;71.64
14689;BME280;7432;48.728;9.154;2022-12-11T10:11:00;95861.66;;;1.61;71.74
14689;BME280;7432;48.728;9.154;2022-12-11T10:13:36;95853.06;;;1.73;71.12
14689;BME280;7432;48.728;9.154;2022-12-11T10:16:17;95857.53;;;1.81;71.27
14689;BME280;7432;48.728;9.154;2022-12-11T10:18:46;95861.13;;;1.78;69.93
14689;BME280;7432;48.728;9.154;2022-12-11T10:21:15;95853.16;;;1.51;70.50
14689;BME280;7432;48.728;9.154;2022-12-11T10:23:49;95840.69;;;1.59;69.91
14689;BME280;7432;48.728;9.154;2022-12-11T10:26:19;95843.16;;;1.70;69.70
14689;BME280;7432;48.728;9.154;2022-12-11T10:28:45;95841.59;;;1.90;70.37
14689;BME280;7432;48.728;9.154;2022-12-11T10:31:16;95840.56;;;2.02;70.15
14689;BME280;7432;48.728;9.154;2022-12-11T10:33:52;95834.59;;;2.03;70.06
14689;BME280;7432;48.728;9.154;2022-12-11T10:36:25;95831.94;;;2.05;70.24
14689;BME280;7432;48.728;9.154;2022-12-11T10:38:52;95832.34;;;2.10;71.10
14689;BME280;7432;48.728;9.154;2022-12-11T10:41:20;95824.25;;;2.16;69.85
14689;BME280;7432;48.728;9.154;2022-12-11T10:43:50;95827.25;;;2.30;70.48
14689;BME280;7432;48.728;9.154;2022-12-11T10:46:20;95813.06;;;2.28;69.53
14689;BME280;7432;48.728;9.154;2022-12-11T10:48:49;95822.59;;;2.35;68.91
14689;BME280;7432;48.728;9.154;2022-12-11T10:51:17;95825.22;;;2.24;68.58
14689;BME280;7432;48.728;9.154;2022-12-11T10:53:48;95820.72;;;2.07;68.98
14689;BME280;7432;48.728;9.154;2022-12-11T10:56:23;95810.38;;;1.78;70.34
14689;BME280;7432;48.728;9.154;2022-12-11T10:58:51;95815.22;;;1.82;69.60
14689;BME280;7432;48.728;9.154;2022-12-11T11:01:21;95808.56;;;1.69;70.38
14689;BME280;7432;48.728;9.154;2022-12-11T11:03:54;95794.59;;;1.54;70.53
14689;BME280;7432;48.728;9.154;2022-12-11T11:06:22;95810.81;;;1.63;70.98
14689;BME280;7432;48.728;9.154;2022-12-11T11:08:51;95812.28;;;1.45;70.64
14689;BME280;7432;48.728;9.154;2022-12-11T11:11:24;95807.56;;;1.40;71.17
14689;BME280;7432;48.728;9.154;2022-12-11T11:13:51;95800.34;;;1.25;71.13
14689;BME280;7432;48.728;9.154;2022-12-11T11:16:20;95800.06;;;1.39;72.00
14689;BME280;7432;48.728;9.154;2022-12-11T11:18:52;95797.31;;;1.42;71.68
14689;BME280;7432;48.728;9.154;2022-12-11T11:21:21;95794.63;;;1.43;71.73
14689;BME280;7432;48.728;9.154;2022-12-11T11:23:49;95799.28;;;1.59;73.05
14689;BME280;7432;48.728;9.154;2022-12-11T11:26:16;95794.59;;;1.54;70.67
14689;BME280;7432;48.728;9.154;2022-12-11T11:28:46;95798.50;;;1.58;72.47
14689;BME280;7432;48.728;9.154;2022-12-11T11:31:15;95789.66;;;1.53;72.09
14689;BME280;7432;48.728;9.154;2022-12-11T11:33:51;95794.75;;;1.42;72.30
14689;BME280;7432;48.728;9.154;2022-12-11T11:36:21;95785.34;;;1.53;70.85
14689;BME280;7432;48.728;9.154;2022-12-11T11:38:51;95790.81;;;1.69;71.74
14689;BME280;7432;48.728;9.154;2022-12-11T11:41:25;95789.19;;;1.89;72.07
14689;BME280;7432;48.728;9.154;2022-12-11T11:43:55;95783.75;;;1.73;69.94
14689;BME280;7432;48.728;9.154;2022-12-11T11:46:25;95784.72;;;1.72;70.70
14689;BME280;7432;48.728;9.154;2022-12-11T11:48:59;95772.72;;;1.42;71.58
14689;BME280;7432;48.728;9.154;2022-12-11T11:51:33;95780.53;;;1.71;72.83
14689;BME280;7432;48.728;9.154;2022-12-11T11:54:06;95771.06;;;1.73;72.85
14689;BME280;7432;48.728;9.154;2022-12-11T11:56:36;95775.53;;;1.80;72.51
14689;BME280;7432;48.728;9.154;2022-12-11T11:59:07;95785.00;;;1.99;71.65
14689;BME280;7432;48.728;9.154;2022-12-11T12:01:36;95779.13;;;1.99;71.20
14689;BME280;7432;48.728;9.154;2022-12-11T12:04:04;95781.94;;;2.05;70.87
14689;BME280;7432;48.728;9.154;2022-12-11T12:06:40;95769.38;;;2.04;70.53
14689;BME280;7432;48.728;9.154;2022-12-11T12:09:16;95776.84;;;2.05;71.09
14689;BME280;7432;48.728;9.154;2022-12-11T12:11:48;95782.75;;;2.06;71.96
14689;BME280;7432;48.728;9.154;2022-12-11T12:14:21;95772.16;;;2.01;73.06
14689;BME280;7432;48.728;9.154;2022-12-11T12:16:58;95774.47;;;2.04;74.03
14689;BME280;7432;48.728;9.154;2022-12-11T12:19:40;95774.34;;;1.85;72.47
14689;BME280;7432;48.728;9.154;2022-12-11T12:22:18;95774.22;;;1.86;72.41
14689;BME280;7432;48.728;9.154;2022-12-11T12:24:53;95774.22;;;1.86;73.40
14689;BME280;7432;48.728;9.154;2022-12-11T12:27:28;95774.84;;;1.78;73.81
14689;BME280;7432;48.728;9.154;2022-12-11T12:30:01;95764.84;;;1.77;73.35
14689;BME280;7432;48.728;9.154;2022-12-11T12:32:38;95768.59;;;1.83;74.56
14689;BME280;7432;48.728;9.154;2022-12-11T12:35:26;95759.81;;;1.66;73.90
14689;BME280;7432;48.728;9.154;2022-12-11T12:37:57;95755.22;;;1.60;73.44
14689;BME280;7432;48.728;9.154;2022-12-11T12:40:31;95752.03;;;1.58;73.21
14689;BME280;7432;48.728;9.154;2022-12-11T12:43:05;95747.44;;;1.52;75.18
14689;BME280;7432;48.728;9.154;2022-12-11T12:45:44;95748.50;;;1.49;75.17
14689;BME280;7432;48.728;9.154;2022-12-11T12:48:13;95748.72;;;1.46;74.31
14689;BME280;7432;48.728;9.154;2022-12-11T12:50:42;95745.53;;;1.12;76.15
14689;BME280;7432;48.728;9.154;2022-12-11T12:53:15;95741.56;;;1.31;75.11
14689;BME280;7432;48.728;9.154;2022-12-11T12:55:44;95751.66;;;1.10;75.31
14689;BME280;7432;48.728;9.154;2022-12-11T12:58:27;95744.38;;;1.16;75.87
14689;BME280;7432;48.728;9.154;2022-12-11T13:00:54;95736.66;;;0.86;75.23
14689;BME280;7432;48.728;9.154;2022-12-11T13:03:35;95746.03;;;1.06;76.11
14689;BME280;7432;48.728;9.154;2022-12-11T13:06:04;95746.94;;;1.05;74.61
14689;BME280;7432;48.728;9.154;2022-12-11T13:08:35;95746.19;;;0.83;75.45
14689;BME280;7432;48.728;9.154;2022-12-11T13:11:06;95738.25;;;0.87;76.42
14689;BME280;7432;48.728;9.154;2022-12-11T13:13:36;95743.44;;;0.86;77.40
14689;BME280;7432;48.728;9.154;2022-12-11T13:16:24;95748.03;;;0.92;76.62
14689;BME280;7432;48.728;9.154;2022-12-11T13:18:52;95735.59;;;0.89;77.50
14689;BME280;7432;48.728;9.154;2022-12-11T13:21:27;95745.94;;;0.97;77.42
14689;BME280;7432;48.728;9.154;2022-12-11T13:23:54;95743.59;;;1.05;76.05
14689;BME280;7432;48.728;9.154;2022-12-11T13:26:27;95742.44;;;1.09;75.76
14689;BME280;7432;48.728;9.154;2022-12-11T13:28:54;95749.69;;;1.13;76.48